createdAt,value
2023-03-22T00:01:46.576Z,99120.80
2023-03-22T00:04:14.361Z,99120.40
2023-03-22T00:06:42.159Z,99118.20
2023-03-22T00:09:09.980Z,99116.20
2023-03-22T00:11:37.708Z,99117.00
2023-03-22T00:14:06.319Z,99114.00
2023-03-22T00:16:34.103Z,99112.00
2023-03-22T00:19:02.058Z,99110.60
2023-03-22T00:21:29.849Z,99110.20
2023-03-22T00:23:57.669Z,99108.20
2023-03-22T00:26:25.745Z,99113.40
2023-03-22T00:28:53.549Z,99119.20
2023-03-22T00:31:21.420Z,99113.20
2023-03-22T00:33:49.204Z,99108.60
2023-03-22T00:36:16.969Z,99102.40
2023-03-22T00:38:45.326Z,99102.40
2023-03-22T00:41:19.083Z,99102.20
2023-03-22T00:43:47.477Z,99105.80
2023-03-22T00:46:16.168Z,99101.80
2023-03-22T00:48:44.507Z,99104.40
2023-03-22T00:51:13.055Z,99108.00
2023-03-22T00:53:43.078Z,99101.40
2023-03-22T00:56:14.405Z,99099.60
2023-03-22T00:59:13.026Z,99105.60
2023-03-22T01:01:42.730Z,99096.80
2023-03-22T01:04:15.447Z,99105.60
2023-03-22T01:06:44.198Z,99099.80
2023-03-22T01:09:15.179Z,99098.60
2023-03-22T01:11:43.750Z,99092.00
2023-03-22T01:14:13.980Z,99092.20
2023-03-22T01:16:42.171Z,99087.80
2023-03-22T01:19:10.847Z,99081.00
2023-03-22T01:21:39.289Z,99071.80
2023-03-22T01:24:07.790Z,99069.80
2023-03-22T01:26:36.096Z,99066.80
2023-03-22T01:29:03.884Z,99065.40
2023-03-22T01:31:31.719Z,99057.60
2023-03-22T01:33:59.662Z,99050.80
2023-03-22T01:36:28.733Z,99056.00
2023-03-22T01:38:56.870Z,99052.40
2023-03-22T01:41:24.776Z,99050.00
2023-03-22T01:44:19.811Z,99045.00
2023-03-22T01:46:50.433Z,99038.20
2023-03-22T01:49:32.900Z,99034.60
2023-03-22T01:52:07.073Z,99033.80
2023-03-22T01:54:57.597Z,99034.60
2023-03-22T01:57:37.648Z,99042.00
2023-03-22T02:00:15.754Z,99033.80
2023-03-22T02:03:09.953Z,99033.00
2023-03-22T02:05:43.769Z,99029.80
2023-03-22T02:08:15.226Z,99033.00
2023-03-22T02:11:04.197Z,99027.20
2023-03-22T02:13:42.874Z,99032.40
2023-03-22T02:16:33.027Z,99025.80
2023-03-22T02:19:42.644Z,99023.00
2023-03-22T02:22:30.405Z,99020.00
2023-03-22T02:25:11.763Z,99021.80
2023-03-22T02:28:29.556Z,99020.00
2023-03-22T02:31:14.487Z,99010.40
2023-03-22T02:34:49.424Z,99009.40
2023-03-22T02:37:34.827Z,99010.40
2023-03-22T02:40:17.040Z,99012.40
2023-03-22T02:43:06.354Z,99013.40
2023-03-22T02:45:40.842Z,99010.40
2023-03-22T02:48:16.433Z,99011.40
2023-03-22T02:50:56.002Z,99013.80
2023-03-22T02:53:36.604Z,99013.20
2023-03-22T02:56:09.853Z,99008.80
2023-03-22T02:58:45.933Z,99011.80
2023-03-22T03:01:51.425Z,99011.60
2023-03-22T03:04:28.511Z,99015.80
2023-03-22T03:07:01.448Z,99018.40
2023-03-22T03:09:29.212Z,99017.20
2023-03-22T03:11:57.056Z,99013.40
2023-03-22T03:14:30.730Z,99016.20
2023-03-22T03:17:22.824Z,99011.80
2023-03-22T03:20:30.802Z,99011.80
2023-03-22T03:23:19.929Z,99004.80
2023-03-22T03:26:19.337Z,99008.00
2023-03-22T03:29:20.645Z,99002.20
2023-03-22T03:31:58.059Z,99002.40
2023-03-22T03:34:30.726Z,99005.80
2023-03-22T03:37:18.647Z,99011.40
2023-03-22T03:40:06.409Z,99005.20
2023-03-22T03:42:34.302Z,99006.80
2023-03-22T03:45:02.164Z,99005.80
2023-03-22T03:47:31.678Z,98998.20
2023-03-22T03:49:59.581Z,98995.80
2023-03-22T03:52:27.724Z,98999.80
2023-03-22T03:54:55.563Z,98995.80
2023-03-22T03:57:28.563Z,98996.20
2023-03-22T03:59:56.440Z,98988.80
2023-03-22T04:02:42.671Z,98993.20
2023-03-22T04:05:16.773Z,98987.00
2023-03-22T04:07:44.931Z,98982.80
2023-03-22T04:10:13.547Z,98982.40
2023-03-22T04:12:42.047Z,98979.60
2023-03-22T04:15:13.033Z,98979.00
2023-03-22T04:17:41.712Z,98982.80
2023-03-22T04:20:11.028Z,98982.20
2023-03-22T04:22:39.745Z,98982.80
2023-03-22T04:25:11.912Z,98980.60
2023-03-22T04:27:42.740Z,98986.00
2023-03-22T04:30:18.862Z,98986.60
2023-03-22T04:33:08.729Z,98990.20
2023-03-22T04:35:57.150Z,98985.80
2023-03-22T04:38:29.632Z,98985.20
2023-03-22T04:40:58.008Z,98984.80
2023-03-22T04:43:39.632Z,98984.20
2023-03-22T04:46:12.954Z,98989.40
2023-03-22T04:48:47.373Z,98991.40
2023-03-22T04:51:15.518Z,98985.80
2023-03-22T04:53:52.291Z,98992.60
2023-03-22T04:56:20.673Z,98991.20
2023-03-22T04:58:50.612Z,98989.80
2023-03-22T05:01:18.776Z,98989.40
2023-03-22T05:03:48.454Z,98991.80
2023-03-22T05:06:18.633Z,98989.00
2023-03-22T05:09:01.077Z,98986.20
2023-03-22T05:11:29.180Z,98990.40
2023-03-22T05:14:15.667Z,98991.80
2023-03-22T05:16:43.862Z,98994.60
2023-03-22T05:19:14.257Z,98990.20
2023-03-22T05:21:45.508Z,98986.40
2023-03-22T05:24:13.291Z,98984.60
2023-03-22T05:26:42.575Z,98982.60
2023-03-22T05:29:12.735Z,98979.60
2023-03-22T05:31:59.286Z,98981.00
2023-03-22T05:34:35.583Z,98974.80
2023-03-22T05:37:10.309Z,98984.80
2023-03-22T05:39:48.970Z,98983.20
2023-03-22T05:42:17.210Z,98982.80
2023-03-22T05:44:45.334Z,98979.20
2023-03-22T05:47:14.194Z,98981.80
2023-03-22T05:50:01.945Z,98979.80
2023-03-22T05:52:30.468Z,98984.40
2023-03-22T05:55:27.314Z,98985.00
2023-03-22T05:58:02.042Z,98980.60
2023-03-22T06:00:32.217Z,98983.40
2023-03-22T06:03:19.225Z,98982.20
2023-03-22T06:05:54.942Z,98978.40
2023-03-22T06:08:29.798Z,98986.40
2023-03-22T06:10:59.780Z,98987.20
2023-03-22T06:13:28.191Z,98984.60
2023-03-22T06:16:03.005Z,98987.00
2023-03-22T06:18:31.604Z,98990.40
2023-03-22T06:21:05.682Z,98985.60
2023-03-22T06:23:33.636Z,98986.00
2023-03-22T06:26:01.763Z,98990.00
2023-03-22T06:28:31.234Z,98989.20
2023-03-22T06:31:07.429Z,98993.20
2023-03-22T06:33:45.594Z,98993.60
2023-03-22T06:36:36.309Z,98993.60
2023-03-22T06:39:08.051Z,98995.80
2023-03-22T06:41:35.942Z,98992.40
2023-03-22T06:44:03.922Z,98990.60
2023-03-22T06:47:03.211Z,98984.80
2023-03-22T06:49:43.528Z,98988.60
2023-03-22T06:52:16.415Z,98995.60
2023-03-22T06:54:44.878Z,98998.60
2023-03-22T06:57:12.911Z,98998.40
2023-03-22T06:59:40.830Z,99003.20
2023-03-22T07:02:12.093Z,98996.80
2023-03-22T07:04:41.496Z,98997.00
2023-03-22T07:07:09.445Z,98993.00
2023-03-22T07:09:41.303Z,98992.40
2023-03-22T07:12:10.043Z,98993.40
2023-03-22T07:14:38.697Z,98993.00
2023-03-22T07:17:21.643Z,98991.60
2023-03-22T07:19:49.436Z,98994.20
2023-03-22T07:22:17.995Z,98991.00
2023-03-22T07:24:56.132Z,98989.60
2023-03-22T07:27:25.452Z,98987.60
2023-03-22T07:29:54.428Z,98983.00
2023-03-22T07:32:22.898Z,98987.00
2023-03-22T07:35:04.884Z,98981.40
2023-03-22T07:37:33.394Z,98987.60
2023-03-22T07:40:04.120Z,98979.00
2023-03-22T07:42:32.167Z,98976.80
2023-03-22T07:45:22.177Z,98981.80
2023-03-22T07:48:11.338Z,98973.20
2023-03-22T07:50:56.493Z,98977.00
2023-03-22T07:53:25.869Z,98977.80
2023-03-22T07:55:53.880Z,98972.60
2023-03-22T07:58:21.798Z,98965.60
2023-03-22T08:00:50.463Z,98967.80
2023-03-22T08:03:37.819Z,98962.00
2023-03-22T08:06:14.438Z,98959.20
2023-03-22T08:08:42.933Z,98960.80
2023-03-22T08:11:12.507Z,98953.00
2023-03-22T08:13:40.656Z,98951.40
2023-03-22T08:16:09.993Z,98947.60
2023-03-22T08:18:38.588Z,98944.60
2023-03-22T08:21:07.526Z,98945.40
2023-03-22T08:23:41.849Z,98940.20
2023-03-22T08:26:29.117Z,98929.60
2023-03-22T08:28:59.958Z,98922.80
2023-03-22T08:31:30.615Z,98923.80
2023-03-22T08:33:58.650Z,98922.60
2023-03-22T08:36:27.694Z,98924.20
2023-03-22T08:39:01.718Z,98931.00
2023-03-22T08:41:56.455Z,98934.00
2023-03-22T08:44:26.214Z,98932.80
2023-03-22T08:46:54.432Z,98926.80
2023-03-22T08:49:22.923Z,98925.60
2023-03-22T08:51:58.037Z,98930.80
2023-03-22T08:54:49.212Z,98935.20
2023-03-22T08:57:38.769Z,98929.00
2023-03-22T09:00:42.419Z,98920.60
2023-03-22T09:03:28.741Z,98919.40
2023-03-22T09:05:57.131Z,98919.60
2023-03-22T09:08:26.136Z,98911.80
2023-03-22T09:10:59.642Z,98908.00
2023-03-22T09:13:28.524Z,98914.40
2023-03-22T09:15:59.740Z,98919.20
2023-03-22T09:18:31.206Z,98927.00
2023-03-22T09:21:01.934Z,98925.80
2023-03-22T09:23:38.193Z,98925.80
2023-03-22T09:26:08.714Z,98927.20
2023-03-22T09:28:37.547Z,98922.60
2023-03-22T09:31:09.434Z,98925.00
2023-03-22T09:33:38.589Z,98920.40
2023-03-22T09:36:07.786Z,98919.00
2023-03-22T09:38:36.607Z,98916.80
2023-03-22T09:41:18.039Z,98921.20
2023-03-22T09:43:52.858Z,98920.20
2023-03-22T09:46:29.892Z,98918.20
2023-03-22T09:48:59.922Z,98909.60
2023-03-22T09:51:39.062Z,98905.40
2023-03-22T09:54:33.690Z,98911.00
2023-03-22T09:57:37.432Z,98910.00
2023-03-22T10:00:38.314Z,98902.60
2023-03-22T10:03:33.850Z,98898.60
2023-03-22T10:06:15.427Z,98900.60
2023-03-22T10:09:27.225Z,98897.60
2023-03-22T10:12:20.027Z,98894.80
2023-03-22T10:15:11.206Z,98897.60
2023-03-22T10:17:39.314Z,98901.00
2023-03-22T10:20:09.866Z,98899.20
2023-03-22T10:22:42.165Z,98893.40
2023-03-22T10:25:12.192Z,98886.80
2023-03-22T10:27:39.964Z,98884.80
2023-03-22T10:30:22.181Z,98872.00
2023-03-22T10:33:02.940Z,98881.20
2023-03-22T10:35:32.089Z,98880.00
2023-03-22T10:38:02.645Z,98886.00
2023-03-22T10:40:33.610Z,98879.00
2023-03-22T10:43:06.460Z,98877.40
2023-03-22T10:45:35.330Z,98879.00
2023-03-22T10:48:11.910Z,98883.00
2023-03-22T10:50:42.417Z,98885.60
2023-03-22T10:53:28.825Z,98885.20
2023-03-22T10:55:57.010Z,98880.80
2023-03-22T10:58:37.906Z,98880.00
2023-03-22T11:01:12.018Z,98883.00
2023-03-22T11:03:42.205Z,98883.00
2023-03-22T11:06:12.493Z,98879.20
2023-03-22T11:08:47.732Z,98875.60
2023-03-22T11:11:35.948Z,98866.20
2023-03-22T11:14:26.770Z,98861.60
2023-03-22T11:17:08.147Z,98862.20
2023-03-22T11:19:38.351Z,98854.20
2023-03-22T11:22:24.689Z,98849.60
2023-03-22T11:24:52.748Z,98847.60
2023-03-22T11:27:24.305Z,98841.60
2023-03-22T11:29:54.399Z,98840.80
2023-03-22T11:32:32.847Z,98834.40
2023-03-22T11:35:02.508Z,98837.00
2023-03-22T11:37:30.700Z,98824.80
2023-03-22T11:40:04.746Z,98827.00
2023-03-22T11:42:34.164Z,98819.40
2023-03-22T11:45:01.991Z,98819.60
2023-03-22T11:47:33.841Z,98812.00
2023-03-22T11:50:06.557Z,98809.40
2023-03-22T11:52:35.786Z,98800.80
2023-03-22T11:55:03.758Z,98802.40
2023-03-22T11:57:32.363Z,98799.80
2023-03-22T12:00:11.759Z,98799.40
2023-03-22T12:03:05.720Z,98796.80
2023-03-22T12:05:34.670Z,98794.20
2023-03-22T12:08:16.345Z,98794.40
2023-03-22T12:10:48.213Z,98787.80
2023-03-22T12:13:33.263Z,98782.40
2023-03-22T12:16:03.677Z,98787.40
2023-03-22T12:18:44.886Z,98783.00
2023-03-22T12:21:12.746Z,98776.00
2023-03-22T12:23:40.556Z,98776.40
2023-03-22T12:26:16.528Z,98773.40
2023-03-22T12:29:07.252Z,98775.60
2023-03-22T12:31:44.956Z,98768.20
2023-03-22T12:34:19.178Z,98768.60
2023-03-22T12:36:53.194Z,98763.60
2023-03-22T12:39:36.016Z,98766.40
2023-03-22T12:42:50.750Z,98764.60
2023-03-22T12:45:26.665Z,98762.40
2023-03-22T12:48:19.334Z,98765.80
2023-03-22T12:50:52.591Z,98746.60
2023-03-22T12:53:20.745Z,98754.40
2023-03-22T12:55:48.681Z,98749.40
2023-03-22T12:58:24.162Z,98748.80
2023-03-22T13:00:56.457Z,98752.20
2023-03-22T13:03:52.781Z,98757.00
2023-03-22T13:06:55.594Z,98750.40
2023-03-22T13:09:29.886Z,98752.60
2023-03-22T13:12:32.449Z,98744.00
2023-03-22T13:15:41.204Z,98740.80
2023-03-22T13:18:33.593Z,98738.60
2023-03-22T13:21:12.697Z,98730.40
2023-03-22T13:23:55.876Z,98724.00
2023-03-22T13:26:45.534Z,98726.00
2023-03-22T13:29:25.056Z,98727.60
2023-03-22T13:31:58.504Z,98727.60
2023-03-22T13:34:44.976Z,98724.40
2023-03-22T13:37:35.185Z,98722.20
2023-03-22T13:40:36.603Z,98723.20
2023-03-22T13:43:44.720Z,98720.60
2023-03-22T13:46:20.128Z,98717.00
2023-03-22T13:48:48.846Z,98717.20
2023-03-22T13:51:32.110Z,98711.20
2023-03-22T13:54:13.357Z,98706.80
2023-03-22T13:56:41.923Z,98704.20
2023-03-22T14:00:09.144Z,98704.00
2023-03-22T14:02:40.014Z,98703.80
2023-03-22T14:05:16.861Z,98695.60
2023-03-22T14:07:56.375Z,98696.00
2023-03-22T14:10:56.869Z,98697.40
2023-03-22T14:13:43.489Z,98696.80
2023-03-22T14:16:34.252Z,98698.20
2023-03-22T14:19:02.397Z,98698.00
2023-03-22T14:21:45.681Z,98699.00
